sensor_id;sensor_type;location;lat;lon;timestamp;P1;P2;P0
49686;PMS5003;36064;38.180;-122.272;2023-01-31T00:00:00;0.4;0.8;
49686;PMS5003;36064;38.180;-122.272;2023-01-31T00:05:00;0.4;0.8;
49686;PMS5003;36064;38.180;-122.272;2023-01-31T00:10:00;0.4;0.8;
49686;PMS5003;36064;38.180;-122.272;2023-01-31T00:15:00;0.4;0.8;
49686;PMS5003;36064;38.180;-122.272;2023-01-31T00:20:00;0.4;0.8;
49686;PMS5003;36064;38.180;-122.272;2023-01-31T00:25:00;0.4;0.8;
49686;PMS5003;36064;38.180;-122.272;2023-01-31T00:30:00;0.8;0.0;
49686;PMS5003;36064;38.180;-122.272;2023-01-31T00:35:00;1.2;0.8;
49686;PMS5003;36064;38.180;-122.272;2023-01-31T00:40:00;1.2;0.8;
49686;PMS5003;36064;38.180;-122.272;2023-01-31T00:45:01;1.2;0.8;
49686;PMS5003;36064;38.180;-122.272;2023-01-31T00:50:01;0.0;0.8;
49686;PMS5003;36064;38.180;-122.272;2023-01-31T00:55:00;0.8;0.8;
49686;PMS5003;36064;38.180;-122.272;2023-01-31T01:00:01;0.4;0.4;
49686;PMS5003;36064;38.180;-122.272;2023-01-31T01:05:00;0.4;0.4;
49686;PMS5003;36064;38.180;-122.272;2023-01-31T01:10:00;0.4;0.4;
49686;PMS5003;36064;38.180;-122.272;2023-01-31T01:15:00;0.4;0.4;
49686;PMS5003;36064;38.180;-122.272;2023-01-31T01:20:00;0.4;0.4;
49686;PMS5003;36064;38.180;-122.272;2023-01-31T01:25:00;0.4;0.4;
49686;PMS5003;36064;38.180;-122.272;2023-01-31T01:30:00;0.0;0.4;
49686;PMS5003;36064;38.180;-122.272;2023-01-31T01:35:01;0.6;0.4;
49686;PMS5003;36064;38.180;-122.272;2023-01-31T01:40:00;0.6;0.6;
49686;PMS5003;36064;38.180;-122.272;2023-01-31T01:45:01;0.6;0.6;
49686;PMS5003;36064;38.180;-122.272;2023-01-31T01:50:02;0.6;0.6;
49686;PMS5003;36064;38.180;-122.272;2023-01-31T01:55:02;0.0;0.0;
49686;PMS5003;36064;38.180;-122.272;2023-01-31T02:00:03;1.2;1.2;
49686;PMS5003;36064;38.180;-122.272;2023-01-31T02:05:01;2.2;2.2;
49686;PMS5003;36064;38.180;-122.272;2023-01-31T02:10:02;2.0;2.0;
49686;PMS5003;36064;38.180;-122.272;2023-01-31T02:15:01;0.4;0.4;
49686;PMS5003;36064;38.180;-122.272;2023-01-31T02:20:04;0.0;0.0;
49686;PMS5003;36064;38.180;-122.272;2023-01-31T02:30:10;0.0;0.0;
49686;PMS5003;36064;38.180;-122.272;2023-01-31T02:35:02;1.6;0.8;
49686;PMS5003;36064;38.180;-122.272;2023-01-31T02:40:03;0.6;0.2;
49686;PMS5003;36064;38.180;-122.272;2023-01-31T02:45:03;1.2;0.4;
49686;PMS5003;36064;38.180;-122.272;2023-01-31T02:50:02;0.8;0.4;
49686;PMS5003;36064;38.180;-122.272;2023-01-31T02:55:03;0.8;0.4;
49686;PMS5003;36064;38.180;-122.272;2023-01-31T03:00:00;0.8;0.4;
49686;PMS5003;36064;38.180;-122.272;2023-01-31T03:05:00;0.8;0.4;
49686;PMS5003;36064;38.180;-122.272;2023-01-31T03:10:03;0.8;0.4;
49686;PMS5003;36064;38.180;-122.272;2023-01-31T03:15:04;1.2;0.4;
49686;PMS5003;36064;38.180;-122.272;2023-01-31T03:20:02;6.0;6.0;
49686;PMS5003;36064;38.180;-122.272;2023-01-31T03:25:01;4.6;6.2;
49686;PMS5003;36064;38.180;-122.272;2023-01-31T03:30:03;3.4;3.0;
49686;PMS5003;36064;38.180;-122.272;2023-01-31T03:35:01;6.0;4.8;
49686;PMS5003;36064;38.180;-122.272;2023-01-31T03:40:02;5.6;5.6;
49686;PMS5003;36064;38.180;-122.272;2023-01-31T03:45:01;7.2;7.0;
49686;PMS5003;36064;38.180;-122.272;2023-01-31T03:50:01;6.4;6.4;
49686;PMS5003;36064;38.180;-122.272;2023-01-31T03:55:01;5.8;5.8;
49686;PMS5003;36064;38.180;-122.272;2023-01-31T04:00:02;4.2;4.2;
49686;PMS5003;36064;38.180;-122.272;2023-01-31T04:05:03;6.0;6.0;
49686;PMS5003;36064;38.180;-122.272;2023-01-31T04:10:00;7.6;6.8;
49686;PMS5003;36064;38.180;-122.272;2023-01-31T04:15:00;6.8;6.6;
49686;PMS5003;36064;38.180;-122.272;2023-01-31T04:20:01;5.6;5.2;
49686;PMS5003;36064;38.180;-122.272;2023-01-31T04:25:00;7.0;7.0;
49686;PMS5003;36064;38.180;-122.272;2023-01-31T04:30:00;5.2;5.0;
49686;PMS5003;36064;38.180;-122.272;2023-01-31T04:35:00;3.2;2.8;
49686;PMS5003;36064;38.180;-122.272;2023-01-31T04:40:00;2.4;2.4;
49686;PMS5003;36064;38.180;-122.272;2023-01-31T04:45:00;1.0;1.0;
49686;PMS5003;36064;38.180;-122.272;2023-01-31T04:50:00;0.6;0.6;
49686;PMS5003;36064;38.180;-122.272;2023-01-31T04:55:00;0.4;0.4;
49686;PMS5003;36064;38.180;-122.272;2023-01-31T05:00:00;0.8;0.8;
49686;PMS5003;36064;38.180;-122.272;2023-01-31T05:05:00;1.0;1.0;
49686;PMS5003;36064;38.180;-122.272;2023-01-31T05:10:05;0.6;0.6;
49686;PMS5003;36064;38.180;-122.272;2023-01-31T05:15:00;1.0;0.6;
49686;PMS5003;36064;38.180;-122.272;2023-01-31T05:20:00;1.0;0.6;
49686;PMS5003;36064;38.180;-122.272;2023-01-31T05:25:00;1.0;0.6;
49686;PMS5003;36064;38.180;-122.272;2023-01-31T05:30:00;1.0;0.6;
49686;PMS5003;36064;38.180;-122.272;2023-01-31T05:35:00;1.0;0.6;
49686;PMS5003;36064;38.180;-122.272;2023-01-31T05:40:00;1.0;0.6;
49686;PMS5003;36064;38.180;-122.272;2023-01-31T05:45:01;0.4;0.6;
49686;PMS5003;36064;38.180;-122.272;2023-01-31T05:50:00;0.2;0.6;
49686;PMS5003;36064;38.180;-122.272;2023-01-31T05:55:00;1.8;1.6;
49686;PMS5003;36064;38.180;-122.272;2023-01-31T06:00:00;2.8;2.8;
49686;PMS5003;36064;38.180;-122.272;2023-01-31T06:05:00;1.8;1.4;
49686;PMS5003;36064;38.180;-122.272;2023-01-31T06:10:00;0.4;1.4;
49686;PMS5003;36064;38.180;-122.272;2023-01-31T06:15:00;0.4;1.4;
49686;PMS5003;36064;38.180;-122.272;2023-01-31T06:20:01;0.4;1.4;
49686;PMS5003;36064;38.180;-122.272;2023-01-31T06:30:00;0.4;1.4;
49686;PMS5003;36064;38.180;-122.272;2023-01-31T06:35:01;0.4;1.4;
49686;PMS5003;36064;38.180;-122.272;2023-01-31T06:40:00;0.0;1.4;
49686;PMS5003;36064;38.180;-122.272;2023-01-31T06:45:00;0.4;1.4;
49686;PMS5003;36064;38.180;-122.272;2023-01-31T06:50:00;0.4;1.4;
49686;PMS5003;36064;38.180;-122.272;2023-01-31T06:55:00;0.4;1.4;
49686;PMS5003;36064;38.180;-122.272;2023-01-31T07:00:01;0.4;0.4;
49686;PMS5003;36064;38.180;-122.272;2023-01-31T07:05:00;4.0;3.4;
49686;PMS5003;36064;38.180;-122.272;2023-01-31T07:10:00;2.8;3.4;
49686;PMS5003;36064;38.180;-122.272;2023-01-31T07:15:00;4.0;4.0;
49686;PMS5003;36064;38.180;-122.272;2023-01-31T07:20:00;4.2;3.6;
49686;PMS5003;36064;38.180;-122.272;2023-01-31T07:25:00;6.8;6.6;
49686;PMS5003;36064;38.180;-122.272;2023-01-31T07:30:00;6.4;5.6;
49686;PMS5003;36064;38.180;-122.272;2023-01-31T07:35:00;6.8;6.4;
49686;PMS5003;36064;38.180;-122.272;2023-01-31T07:40:00;4.8;4.2;
49686;PMS5003;36064;38.180;-122.272;2023-01-31T07:45:00;6.2;5.4;
49686;PMS5003;36064;38.180;-122.272;2023-01-31T07:50:00;4.8;3.6;
49686;PMS5003;36064;38.180;-122.272;2023-01-31T07:55:00;5.2;4.4;
49686;PMS5003;36064;38.180;-122.272;2023-01-31T08:00:00;6.2;4.2;
49686;PMS5003;36064;38.180;-122.272;2023-01-31T08:05:00;6.6;5.8;
49686;PMS5003;36064;38.180;-122.272;2023-01-31T08:10:00;6.6;6.2;
49686;PMS5003;36064;38.180;-122.272;2023-01-31T08:15:00;7.0;5.6;
49686;PMS5003;36064;38.180;-122.272;2023-01-31T08:20:00;5.2;5.0;
49686;PMS5003;36064;38.180;-122.272;2023-01-31T08:25:00;7.8;6.6;
49686;PMS5003;36064;38.180;-122.272;2023-01-31T08:30:00;7.6;6.4;
49686;PMS5003;36064;38.180;-122.272;2023-01-31T08:35:01;7.8;5.8;
49686;PMS5003;36064;38.180;-122.272;2023-01-31T08:40:00;5.4;4.6;
49686;PMS5003;36064;38.180;-122.272;2023-01-31T08:45:00;7.6;6.0;
49686;PMS5003;36064;38.180;-122.272;2023-01-31T08:50:00;3.6;3.0;
49686;PMS5003;36064;38.180;-122.272;2023-01-31T08:55:00;3.0;1.8;
49686;PMS5003;36064;38.180;-122.272;2023-01-31T09:00:00;4.6;2.4;
49686;PMS5003;36064;38.180;-122.272;2023-01-31T09:05:00;4.8;4.0;
49686;PMS5003;36064;38.180;-122.272;2023-01-31T09:10:00;4.4;3.4;
49686;PMS5003;36064;38.180;-122.272;2023-01-31T09:15:00;4.2;3.2;
49686;PMS5003;36064;38.180;-122.272;2023-01-31T09:20:00;3.8;3.4;
49686;PMS5003;36064;38.180;-122.272;2023-01-31T09:25:00;5.0;3.6;
49686;PMS5003;36064;38.180;-122.272;2023-01-31T09:30:00;2.8;2.6;
49686;PMS5003;36064;38.180;-122.272;2023-01-31T09:35:01;5.2;4.3;
49686;PMS5003;36064;38.180;-122.272;2023-01-31T09:40:00;2.8;2.6;
49686;PMS5003;36064;38.180;-122.272;2023-01-31T09:45:01;3.6;3.2;
49686;PMS5003;36064;38.180;-122.272;2023-01-31T09:50:02;3.8;3.8;
49686;PMS5003;36064;38.180;-122.272;2023-01-31T09:55:00;4.4;4.0;
49686;PMS5003;36064;38.180;-122.272;2023-01-31T10:00:03;2.6;4.0;
49686;PMS5003;36064;38.180;-122.272;2023-01-31T10:05:03;3.42;2.0;
49686;PMS5003;36064;38.180;-122.272;2023-01-31T10:10:02;2.61;2.21;
49686;PMS5003;36064;38.180;-122.272;2023-01-31T10:15:01;2.61;2.6;
49686;PMS5003;36064;38.180;-122.272;2023-01-31T10:20:02;3.2;2.6;
49686;PMS5003;36064;38.180;-122.272;2023-01-31T10:25:03;3.2;3.0;
49686;PMS5003;36064;38.180;-122.272;2023-01-31T10:30:01;1.6;1.8;
49686;PMS5003;36064;38.180;-122.272;2023-01-31T10:35:01;4.2;3.4;
49686;PMS5003;36064;38.180;-122.272;2023-01-31T10:40:02;4.83;4.62;
49686;PMS5003;36064;38.180;-122.272;2023-01-31T10:45:01;4.8;4.4;
49686;PMS5003;36064;38.180;-122.272;2023-01-31T10:50:01;3.4;2.2;
49686;PMS5003;36064;38.180;-122.272;2023-01-31T10:55:03;2.2;2.2;
49686;PMS5003;36064;38.180;-122.272;2023-01-31T11:00:01;3.38;1.6;
49686;PMS5003;36064;38.180;-122.272;2023-01-31T11:05:01;2.2;1.2;
49686;PMS5003;36064;38.180;-122.272;2023-01-31T11:10:00;2.2;0.8;
49686;PMS5003;36064;38.180;-122.272;2023-01-31T11:15:05;2.6;2.0;
49686;PMS5003;36064;38.180;-122.272;2023-01-31T11:20:00;2.4;1.4;
49686;PMS5003;36064;38.180;-122.272;2023-01-31T11:25:01;2.2;1.4;
49686;PMS5003;36064;38.180;-122.272;2023-01-31T11:30:00;2.2;1.4;
49686;PMS5003;36064;38.180;-122.272;2023-01-31T11:35:02;2.8;2.8;
49686;PMS5003;36064;38.180;-122.272;2023-01-31T11:40:01;2.2;2.2;
49686;PMS5003;36064;38.180;-122.272;2023-01-31T11:45:02;1.6;1.6;
49686;PMS5003;36064;38.180;-122.272;2023-01-31T11:50:00;1.6;1.6;
49686;PMS5003;36064;38.180;-122.272;2023-01-31T11:55:01;1.6;1.6;
49686;PMS5003;36064;38.180;-122.272;2023-01-31T12:00:01;2.8;1.6;
49686;PMS5003;36064;38.180;-122.272;2023-01-31T12:05:01;2.4;1.6;
49686;PMS5003;36064;38.180;-122.272;2023-01-31T12:10:00;3.2;3.2;
49686;PMS5003;36064;38.180;-122.272;2023-01-31T12:15:01;2.8;2.4;
49686;PMS5003;36064;38.180;-122.272;2023-01-31T12:20:04;3.2;2.2;
49686;PMS5003;36064;38.180;-122.272;2023-01-31T12:25:03;2.2;1.6;
49686;PMS5003;36064;38.180;-122.272;2023-01-31T12:30:05;3.2;2.8;
49686;PMS5003;36064;38.180;-122.272;2023-01-31T12:35:04;2.2;2.2;
49686;PMS5003;36064;38.180;-122.272;2023-01-31T12:40:04;3.0;1.6;
49686;PMS5003;36064;38.180;-122.272;2023-01-31T12:45:04;4.0;3.0;
49686;PMS5003;36064;38.180;-122.272;2023-01-31T12:50:05;3.4;3.0;
49686;PMS5003;36064;38.180;-122.272;2023-01-31T12:55:05;3.2;2.2;
49686;PMS5003;36064;38.180;-122.272;2023-01-31T13:00:05;2.4;2.2;
49686;PMS5003;36064;38.180;-122.272;2023-01-31T13:05:02;3.2;2.2;
49686;PMS5003;36064;38.180;-122.272;2023-01-31T13:10:01;2.6;2.0;
49686;PMS5003;36064;38.180;-122.272;2023-01-31T13:15:02;2.6;2.0;
49686;PMS5003;36064;38.180;-122.272;2023-01-31T13:20:01;1.4;1.4;
49686;PMS5003;36064;38.180;-122.272;2023-01-31T13:25:04;0.8;0.8;
49686;PMS5003;36064;38.180;-122.272;2023-01-31T13:30:01;1.6;1.6;
49686;PMS5003;36064;38.180;-122.272;2023-01-31T13:35:02;0.4;0.4;
49686;PMS5003;36064;38.180;-122.272;2023-01-31T13:40:02;0.6;0.6;
49686;PMS5003;36064;38.180;-122.272;2023-01-31T13:45:02;0.4;0.2;
49686;PMS5003;36064;38.180;-122.272;2023-01-31T13:50:01;0.4;0.4;
49686;PMS5003;36064;38.180;-122.272;2023-01-31T13:55:01;0.4;0.4;
49686;PMS5003;36064;38.180;-122.272;2023-01-31T14:00:02;1.4;1.4;
49686;PMS5003;36064;38.180;-122.272;2023-01-31T14:05:03;1.4;1.4;
49686;PMS5003;36064;38.180;-122.272;2023-01-31T14:15:01;1.8;1.8;
49686;PMS5003;36064;38.180;-122.272;2023-01-31T14:20:03;1.8;1.4;
49686;PMS5003;36064;38.180;-122.272;2023-01-31T14:25:01;1.8;1.2;
49686;PMS5003;36064;38.180;-122.272;2023-01-31T14:30:07;2.0;2.4;
49686;PMS5003;36064;38.180;-122.272;2023-01-31T14:35:04;2.8;2.0;
49686;PMS5003;36064;38.180;-122.272;2023-01-31T14:40:04;2.0;2.0;
49686;PMS5003;36064;38.180;-122.272;2023-01-31T14:45:08;1.6;1.6;
49686;PMS5003;36064;38.180;-122.272;2023-01-31T14:55:03;2.2;2.2;
49686;PMS5003;36064;38.180;-122.272;2023-01-31T15:00:02;1.0;0.6;
49686;PMS5003;36064;38.180;-122.272;2023-01-31T15:05:01;1.0;0.6;
49686;PMS5003;36064;38.180;-122.272;2023-01-31T15:10:00;1.81;1.0;
49686;PMS5003;36064;38.180;-122.272;2023-01-31T15:15:00;1.8;1.4;
49686;PMS5003;36064;38.180;-122.272;2023-01-31T15:20:03;2.4;2.4;
49686;PMS5003;36064;38.180;-122.272;2023-01-31T15:25:02;3.4;2.6;
49686;PMS5003;36064;38.180;-122.272;2023-01-31T15:30:02;4.0;2.2;
49686;PMS5003;36064;38.180;-122.272;2023-01-31T15:35:03;5.4;5.0;
49686;PMS5003;36064;38.180;-122.272;2023-01-31T15:40:02;5.8;6.4;
49686;PMS5003;36064;38.180;-122.272;2023-01-31T15:50:00;7.4;4.6;
49686;PMS5003;36064;38.180;-122.272;2023-01-31T15:55:02;8.8;5.6;
49686;PMS5003;36064;38.180;-122.272;2023-01-31T16:00:01;8.0;6.0;
49686;PMS5003;36064;38.180;-122.272;2023-01-31T16:05:02;10.6;9.2;
49686;PMS5003;36064;38.180;-122.272;2023-01-31T16:10:00;12.2;10.2;
49686;PMS5003;36064;38.180;-122.272;2023-01-31T16:15:02;12.4;11.0;
49686;PMS5003;36064;38.180;-122.272;2023-01-31T16:20:00;5.6;5.6;
49686;PMS5003;36064;38.180;-122.272;2023-01-31T16:25:01;4.0;4.4;
49686;PMS5003;36064;38.180;-122.272;2023-01-31T16:35:01;7.6;5.8;
49686;PMS5003;36064;38.180;-122.272;2023-01-31T16:40:03;4.6;4.4;
49686;PMS5003;36064;38.180;-122.272;2023-01-31T16:45:00;7.4;7.0;
49686;PMS5003;36064;38.180;-122.272;2023-01-31T16:55:00;6.4;7.8;
49686;PMS5003;36064;38.180;-122.272;2023-01-31T17:00:03;6.8;6.0;
49686;PMS5003;36064;38.180;-122.272;2023-01-31T17:05:07;6.4;5.2;
49686;PMS5003;36064;38.180;-122.272;2023-01-31T17:10:01;6.6;4.6;
49686;PMS5003;36064;38.180;-122.272;2023-01-31T17:15:01;6.4;5.4;
49686;PMS5003;36064;38.180;-122.272;2023-01-31T17:20:00;5.0;4.8;
49686;PMS5003;36064;38.180;-122.272;2023-01-31T17:25:00;4.8;4.8;
49686;PMS5003;36064;38.180;-122.272;2023-01-31T17:30:00;3.6;2.8;
49686;PMS5003;36064;38.180;-122.272;2023-01-31T17:35:00;3.4;2.8;
49686;PMS5003;36064;38.180;-122.272;2023-01-31T17:40:00;1.6;1.6;
49686;PMS5003;36064;38.180;-122.272;2023-01-31T17:45:01;1.75;1.75;
49686;PMS5003;36064;38.180;-122.272;2023-01-31T17:50:00;3.4;2.4;
49686;PMS5003;36064;38.180;-122.272;2023-01-31T17:55:00;3.2;2.2;
49686;PMS5003;36064;38.180;-122.272;2023-01-31T18:00:00;3.0;2.2;
49686;PMS5003;36064;38.180;-122.272;2023-01-31T18:05:00;3.4;3.0;
49686;PMS5003;36064;38.180;-122.272;2023-01-31T18:10:00;2.4;2.0;
49686;PMS5003;36064;38.180;-122.272;2023-01-31T18:15:00;2.8;2.4;
49686;PMS5003;36064;38.180;-122.272;2023-01-31T18:20:00;2.6;2.6;
49686;PMS5003;36064;38.180;-122.272;2023-01-31T18:25:00;2.6;2.0;
49686;PMS5003;36064;38.180;-122.272;2023-01-31T18:30:00;2.6;1.6;
49686;PMS5003;36064;38.180;-122.272;2023-01-31T18:35:00;1.6;1.6;
49686;PMS5003;36064;38.180;-122.272;2023-01-31T18:40:00;2.0;2.0;
49686;PMS5003;36064;38.180;-122.272;2023-01-31T18:45:00;1.8;1.8;
49686;PMS5003;36064;38.180;-122.272;2023-01-31T18:50:00;1.8;1.2;
49686;PMS5003;36064;38.180;-122.272;2023-01-31T18:55:00;1.0;0.8;
49686;PMS5003;36064;38.180;-122.272;2023-01-31T19:00:01;0.6;0.8;
49686;PMS5003;36064;38.180;-122.272;2023-01-31T19:05:00;1.2;1.0;
49686;PMS5003;36064;38.180;-122.272;2023-01-31T19:10:00;0.6;0.4;
49686;PMS5003;36064;38.180;-122.272;2023-01-31T19:15:01;2.4;0.8;
49686;PMS5003;36064;38.180;-122.272;2023-01-31T19:20:01;2.4;0.8;
49686;PMS5003;36064;38.180;-122.272;2023-01-31T19:25:00;2.4;0.8;
49686;PMS5003;36064;38.180;-122.272;2023-01-31T19:30:00;2.4;0.8;
49686;PMS5003;36064;38.180;-122.272;2023-01-31T19:35:00;0.8;0.8;
49686;PMS5003;36064;38.180;-122.272;2023-01-31T19:40:00;0.8;0.8;
49686;PMS5003;36064;38.180;-122.272;2023-01-31T19:45:00;0.8;0.8;
49686;PMS5003;36064;38.180;-122.272;2023-01-31T19:50:01;0.8;0.8;
49686;PMS5003;36064;38.180;-122.272;2023-01-31T19:55:00;0.8;0.8;
49686;PMS5003;36064;38.180;-122.272;2023-01-31T20:00:01;0.4;0.4;
49686;PMS5003;36064;38.180;-122.272;2023-01-31T20:05:01;0.4;0.4;
49686;PMS5003;36064;38.180;-122.272;2023-01-31T20:10:00;0.6;0.6;
49686;PMS5003;36064;38.180;-122.272;2023-01-31T20:15:00;0.0;0.6;
49686;PMS5003;36064;38.180;-122.272;2023-01-31T20:20:01;0.2;0.0;
49686;PMS5003;36064;38.180;-122.272;2023-01-31T20:25:00;0.4;0.4;
49686;PMS5003;36064;38.180;-122.272;2023-01-31T20:30:02;0.4;0.4;
49686;PMS5003;36064;38.180;-122.272;2023-01-31T20:35:00;0.4;0.4;
49686;PMS5003;36064;38.180;-122.272;2023-01-31T20:40:00;0.4;0.4;
49686;PMS5003;36064;38.180;-122.272;2023-01-31T20:45:01;0.4;0.4;
49686;PMS5003;36064;38.180;-122.272;2023-01-31T20:50:00;0.4;0.4;
49686;PMS5003;36064;38.180;-122.272;2023-01-31T20:55:00;0.4;0.4;
49686;PMS5003;36064;38.180;-122.272;2023-01-31T21:00:01;0.8;0.4;
49686;PMS5003;36064;38.180;-122.272;2023-01-31T21:05:00;0.8;0.4;
49686;PMS5003;36064;38.180;-122.272;2023-01-31T21:10:00;0.8;0.4;
49686;PMS5003;36064;38.180;-122.272;2023-01-31T21:15:00;0.8;0.4;
49686;PMS5003;36064;38.180;-122.272;2023-01-31T21:20:00;0.0;0.0;
49686;PMS5003;36064;38.180;-122.272;2023-01-31T21:25:00;0.4;0.4;
49686;PMS5003;36064;38.180;-122.272;2023-01-31T21:30:00;0.6;0.6;
49686;PMS5003;36064;38.180;-122.272;2023-01-31T21:35:00;0.6;0.6;
49686;PMS5003;36064;38.180;-122.272;2023-01-31T21:40:00;0.0;0.6;
49686;PMS5003;36064;38.180;-122.272;2023-01-31T21:45:00;0.8;0.6;
49686;PMS5003;36064;38.180;-122.272;2023-01-31T21:50:00;0.8;0.6;
49686;PMS5003;36064;38.180;-122.272;2023-01-31T21:55:00;0.8;0.6;
49686;PMS5003;36064;38.180;-122.272;2023-01-31T22:00:00;0.8;0.6;
49686;PMS5003;36064;38.180;-122.272;2023-01-31T22:05:01;0.8;0.6;
49686;PMS5003;36064;38.180;-122.272;2023-01-31T22:10:00;0.8;0.6;
49686;PMS5003;36064;38.180;-122.272;2023-01-31T22:15:00;0.8;0.6;
49686;PMS5003;36064;38.180;-122.272;2023-01-31T22:20:00;0.8;0.6;
49686;PMS5003;36064;38.180;-122.272;2023-01-31T22:25:00;0.8;0.6;
49686;PMS5003;36064;38.180;-122.272;2023-01-31T22:30:00;0.8;0.6;
49686;PMS5003;36064;38.180;-122.272;2023-01-31T22:35:00;0.8;0.6;
49686;PMS5003;36064;38.180;-122.272;2023-01-31T22:40:00;0.4;0.6;
49686;PMS5003;36064;38.180;-122.272;2023-01-31T22:45:00;0.4;0.6;
49686;PMS5003;36064;38.180;-122.272;2023-01-31T22:50:00;0.0;0.6;
49686;PMS5003;36064;38.180;-122.272;2023-01-31T22:55:00;0.8;0.6;
49686;PMS5003;36064;38.180;-122.272;2023-01-31T23:00:00;2.4;1.2;
49686;PMS5003;36064;38.180;-122.272;2023-01-31T23:05:00;1.6;1.0;
49686;PMS5003;36064;38.180;-122.272;2023-01-31T23:10:00;1.6;1.0;
49686;PMS5003;36064;38.180;-122.272;2023-01-31T23:15:00;0.4;0.4;
49686;PMS5003;36064;38.180;-122.272;2023-01-31T23:20:01;0.6;0.6;
49686;PMS5003;36064;38.180;-122.272;2023-01-31T23:25:00;0.6;0.6;
49686;PMS5003;36064;38.180;-122.272;2023-01-31T23:30:00;0.6;0.6;
49686;PMS5003;36064;38.180;-122.272;2023-01-31T23:35:01;0.6;0.6;
49686;PMS5003;36064;38.180;-122.272;2023-01-31T23:40:00;0.0;0.6;
49686;PMS5003;36064;38.180;-122.272;2023-01-31T23:45:00;0.8;0.39;
49686;PMS5003;36064;38.180;-122.272;2023-01-31T23:50:00;0.4;0.39;
49686;PMS5003;36064;38.180;-122.272;2023-01-31T23:55:00;0.4;0.39;
